createdAt,value
2023-04-30T00:00:15.265Z,47.18
2023-04-30T00:01:15.239Z,46.01
2023-04-30T00:02:15.418Z,53.53
2023-04-30T00:03:15.316Z,58.96
2023-04-30T00:04:15.346Z,49.71
2023-04-30T00:05:15.201Z,52.56
2023-04-30T00:06:15.214Z,47.67
2023-04-30T00:07:15.188Z,50.31
2023-04-30T00:08:15.182Z,46.19
2023-04-30T00:09:15.211Z,49.88
2023-04-30T00:10:15.153Z,44.10
2023-04-30T00:11:15.633Z,49.83
2023-04-30T00:12:15.163Z,44.65
2023-04-30T00:13:15.163Z,47.27
2023-04-30T00:14:15.898Z,55.98
2023-04-30T00:15:15.133Z,42.75
2023-04-30T00:16:15.769Z,49.13
2023-04-30T00:17:15.114Z,49.98
2023-04-30T00:18:15.133Z,47.88
2023-04-30T00:19:15.136Z,42.22
2023-04-30T00:20:15.074Z,42.55
2023-04-30T00:21:15.142Z,42.23
2023-04-30T00:22:15.075Z,50.00
2023-04-30T00:23:15.053Z,42.78
2023-04-30T00:24:15.043Z,43.74
2023-04-30T00:25:15.113Z,55.19
2023-04-30T00:26:15.526Z,45.31
2023-04-30T00:27:15.382Z,45.21
2023-04-30T00:28:15.054Z,45.48
2023-04-30T00:29:15.718Z,45.67
2023-04-30T00:30:15.294Z,51.09
2023-04-30T00:31:15.002Z,45.13
2023-04-30T00:32:15.105Z,46.25
2023-04-30T00:33:15.054Z,48.39
2023-04-30T00:34:14.989Z,49.32
2023-04-30T00:35:14.995Z,45.12
2023-04-30T00:36:15.209Z,50.91
2023-04-30T00:37:14.974Z,55.42
2023-04-30T00:38:15.594Z,51.76
2023-04-30T00:39:15.698Z,51.31
2023-04-30T00:40:14.958Z,50.89
2023-04-30T00:41:14.941Z,49.03
2023-04-30T00:42:15.475Z,46.05
2023-04-30T00:43:14.910Z,49.54
2023-04-30T00:44:14.883Z,43.13
2023-04-30T00:45:14.881Z,43.39
2023-04-30T00:46:14.965Z,43.55
2023-04-30T00:47:14.876Z,43.86
2023-04-30T00:48:14.880Z,50.01
2023-04-30T00:49:15.255Z,48.69
2023-04-30T00:50:14.841Z,42.14
2023-04-30T00:51:14.907Z,47.04
2023-04-30T00:52:14.823Z,51.48
2023-04-30T00:53:14.842Z,42.94
2023-04-30T00:54:14.832Z,46.35
2023-04-30T00:55:14.799Z,50.39
2023-04-30T00:56:14.841Z,45.19
2023-04-30T00:57:14.809Z,43.37
2023-04-30T00:58:14.773Z,41.71
2023-04-30T00:59:14.788Z,47.70
2023-04-30T01:00:14.784Z,49.68
2023-04-30T01:01:14.820Z,44.20
2023-04-30T01:02:14.752Z,49.92
2023-04-30T01:03:14.791Z,49.76
2023-04-30T01:04:14.749Z,49.81
2023-04-30T01:05:14.751Z,48.82
2023-04-30T01:06:14.764Z,42.04
2023-04-30T01:07:14.749Z,42.60
2023-04-30T01:08:14.740Z,47.53
2023-04-30T01:09:14.716Z,50.07
2023-04-30T01:10:14.694Z,42.90
2023-04-30T01:11:14.674Z,50.88
2023-04-30T01:12:14.712Z,41.83
2023-04-30T01:13:15.267Z,41.60
2023-04-30T01:14:14.666Z,41.46
2023-04-30T01:15:14.668Z,41.79
2023-04-30T01:16:14.690Z,50.15
2023-04-30T01:17:14.678Z,44.10
2023-04-30T01:18:16.079Z,43.25
2023-04-30T01:19:14.684Z,50.21
2023-04-30T01:20:14.642Z,41.89
2023-04-30T01:21:14.619Z,41.87
2023-04-30T01:22:14.626Z,41.35
2023-04-30T01:23:14.627Z,49.52
2023-04-30T01:24:14.593Z,41.80
2023-04-30T01:25:15.478Z,41.77
2023-04-30T01:26:14.587Z,50.11
2023-04-30T01:27:14.591Z,47.66
2023-04-30T01:28:14.611Z,43.80
2023-04-30T01:29:14.558Z,50.21
2023-04-30T01:30:14.566Z,47.02
2023-04-30T01:31:14.584Z,41.65
2023-04-30T01:32:14.592Z,41.33
2023-04-30T01:33:14.536Z,41.69
2023-04-30T01:34:14.525Z,42.27
2023-04-30T01:35:14.497Z,48.02
2023-04-30T01:36:14.533Z,49.95
2023-04-30T01:37:14.505Z,48.30
2023-04-30T01:38:14.504Z,43.03
2023-04-30T01:39:14.475Z,48.33
2023-04-30T01:40:14.455Z,42.01
2023-04-30T01:41:14.475Z,42.10
2023-04-30T01:42:14.445Z,41.33
2023-04-30T01:43:14.442Z,42.71
2023-04-30T01:44:14.440Z,48.11
2023-04-30T01:45:14.444Z,47.87
2023-04-30T01:46:14.489Z,42.46
2023-04-30T01:47:14.483Z,42.04
2023-04-30T01:48:14.397Z,43.15
2023-04-30T01:49:14.394Z,47.80
2023-04-30T01:50:14.398Z,40.99
2023-04-30T01:51:14.419Z,40.94
2023-04-30T01:52:14.423Z,41.16
2023-04-30T01:53:16.885Z,41.46
2023-04-30T01:54:14.345Z,42.76
2023-04-30T01:55:14.366Z,48.22
2023-04-30T01:56:14.349Z,51.04
2023-04-30T01:57:14.398Z,45.19
2023-04-30T01:58:14.328Z,49.00
2023-04-30T01:59:14.314Z,45.38
2023-04-30T02:00:14.329Z,45.33
2023-04-30T02:01:14.373Z,47.45
2023-04-30T02:02:14.336Z,45.33
2023-04-30T02:03:14.462Z,45.35
2023-04-30T02:04:14.301Z,43.60
2023-04-30T02:05:14.261Z,42.11
2023-04-30T02:06:14.277Z,41.63
2023-04-30T02:07:14.280Z,41.37
2023-04-30T02:08:14.307Z,41.59
2023-04-30T02:09:14.288Z,41.11
2023-04-30T02:10:14.336Z,41.23
2023-04-30T02:11:14.259Z,41.38
2023-04-30T02:12:14.226Z,41.30
2023-04-30T02:13:14.498Z,41.16
2023-04-30T02:14:15.954Z,41.31
2023-04-30T02:15:14.243Z,42.81
2023-04-30T02:16:14.247Z,45.86
2023-04-30T02:17:14.217Z,47.70
2023-04-30T02:18:14.289Z,41.87
2023-04-30T02:19:14.588Z,41.53
2023-04-30T02:20:14.169Z,42.01
2023-04-30T02:21:14.261Z,54.90
2023-04-30T02:22:14.157Z,42.03
2023-04-30T02:23:14.166Z,41.45
2023-04-30T02:24:14.148Z,41.51
2023-04-30T02:25:14.181Z,41.23
2023-04-30T02:26:14.134Z,41.19
2023-04-30T02:27:14.089Z,41.28
2023-04-30T02:28:14.334Z,41.56
2023-04-30T02:29:14.138Z,47.93
2023-04-30T02:30:14.100Z,42.22
2023-04-30T02:31:14.124Z,41.81
2023-04-30T02:32:14.073Z,41.68
2023-04-30T02:33:14.047Z,43.79
2023-04-30T02:34:14.102Z,50.08
2023-04-30T02:35:14.046Z,55.16
2023-04-30T02:36:14.023Z,50.66
2023-04-30T02:37:14.017Z,45.22
2023-04-30T02:38:14.037Z,45.92
2023-04-30T02:39:14.029Z,46.84
2023-04-30T02:40:14.029Z,53.48
2023-04-30T02:41:13.994Z,48.76
2023-04-30T02:42:13.973Z,54.23
2023-04-30T02:43:14.057Z,47.48
2023-04-30T02:44:13.987Z,45.57
2023-04-30T02:45:14.052Z,47.14
2023-04-30T02:46:14.005Z,46.01
2023-04-30T02:47:13.969Z,49.12
2023-04-30T02:48:13.942Z,52.53
2023-04-30T02:49:13.951Z,44.93
2023-04-30T02:50:13.968Z,45.42
2023-04-30T02:51:13.960Z,46.66
2023-04-30T02:52:13.918Z,50.10
2023-04-30T02:53:13.949Z,48.58
2023-04-30T02:54:13.922Z,50.25
2023-04-30T02:55:13.912Z,50.64
2023-04-30T02:56:13.908Z,49.72
2023-04-30T02:57:13.909Z,48.98
2023-04-30T02:58:13.865Z,54.06
2023-04-30T02:59:13.856Z,53.07
2023-04-30T03:00:13.852Z,52.61
2023-04-30T03:01:13.865Z,51.17
2023-04-30T03:02:13.892Z,51.27
2023-04-30T03:03:13.933Z,54.28
2023-04-30T03:04:13.816Z,50.17
2023-04-30T03:05:13.824Z,54.16
2023-04-30T03:06:13.913Z,51.01
2023-04-30T03:07:13.801Z,53.53
2023-04-30T03:08:13.807Z,50.58
2023-04-30T03:09:13.812Z,51.33
2023-04-30T03:10:13.790Z,54.17
2023-04-30T03:11:13.767Z,51.71
2023-04-30T03:12:13.815Z,54.82
2023-04-30T03:13:13.791Z,52.08
2023-04-30T03:14:13.743Z,50.50
2023-04-30T03:15:13.750Z,53.49
2023-04-30T03:16:13.749Z,53.20
2023-04-30T03:17:13.719Z,53.33
2023-04-30T03:18:13.762Z,50.47
2023-04-30T03:19:13.757Z,48.63
2023-04-30T03:20:13.732Z,48.69
2023-04-30T03:21:13.702Z,48.98
2023-04-30T03:22:13.711Z,49.83
2023-04-30T03:23:13.681Z,48.57
2023-04-30T03:24:13.707Z,49.77
2023-04-30T03:25:13.648Z,53.76
2023-04-30T03:26:13.652Z,52.75
2023-04-30T03:27:13.632Z,49.10
2023-04-30T03:28:13.624Z,49.04
2023-04-30T03:29:13.625Z,48.06
2023-04-30T03:30:13.636Z,48.53
2023-04-30T03:31:13.610Z,49.30
2023-04-30T03:32:13.646Z,51.46
2023-04-30T03:33:13.603Z,47.24
2023-04-30T03:34:13.582Z,46.93
2023-04-30T03:35:13.584Z,47.04
2023-04-30T03:36:13.606Z,47.13
2023-04-30T03:37:13.602Z,49.49
2023-04-30T03:38:13.571Z,54.37
2023-04-30T03:39:13.599Z,48.15
2023-04-30T03:40:13.539Z,57.93
2023-04-30T03:41:13.577Z,49.14
2023-04-30T03:42:13.548Z,54.68
2023-04-30T03:43:13.532Z,48.09
2023-04-30T03:44:13.520Z,48.41
2023-04-30T03:45:13.510Z,52.46
2023-04-30T03:46:13.509Z,51.97
2023-04-30T04:03:33.617Z,45.59
2023-04-30T04:04:34.752Z,50.46
2023-04-30T04:05:34.752Z,51.84
2023-04-30T04:06:34.824Z,48.78
2023-04-30T04:07:35.764Z,56.73
2023-04-30T04:08:34.746Z,47.31
2023-04-30T04:09:34.711Z,46.85
2023-04-30T04:10:34.772Z,47.86
2023-04-30T04:11:37.229Z,47.77
2023-04-30T04:12:34.751Z,46.55
2023-04-30T04:13:34.713Z,53.02
2023-04-30T04:14:34.666Z,61.09
2023-04-30T04:15:34.720Z,45.82
2023-04-30T04:16:34.697Z,43.33
2023-04-30T04:17:34.684Z,48.92
2023-04-30T04:18:34.665Z,43.36
2023-04-30T04:19:34.625Z,51.12
2023-04-30T04:20:34.636Z,50.67
2023-04-30T04:21:34.644Z,58.59
2023-04-30T04:22:34.619Z,50.36
2023-04-30T04:23:34.651Z,51.50
2023-04-30T04:24:34.612Z,54.64
2023-04-30T04:25:34.585Z,45.38
2023-04-30T04:26:34.601Z,51.23
2023-04-30T04:27:34.585Z,47.84
2023-04-30T04:28:34.574Z,56.75
2023-04-30T04:29:34.587Z,47.93
2023-04-30T04:30:34.558Z,52.74
2023-04-30T04:31:34.622Z,47.11
2023-04-30T04:32:34.560Z,52.45
2023-04-30T04:33:34.519Z,47.79
2023-04-30T04:34:34.561Z,43.57
2023-04-30T04:35:34.523Z,54.63
2023-04-30T04:36:34.512Z,44.41
2023-04-30T04:37:34.541Z,57.13
2023-04-30T04:38:34.475Z,44.70
2023-04-30T04:39:34.472Z,52.86
2023-04-30T04:40:34.498Z,48.87
2023-04-30T04:41:34.478Z,46.06
2023-04-30T04:42:34.477Z,51.93
2023-04-30T04:43:34.478Z,53.87
2023-04-30T04:44:34.452Z,51.74
2023-04-30T04:45:34.457Z,54.41
2023-04-30T04:46:34.508Z,52.11
2023-04-30T04:47:34.444Z,49.22
2023-04-30T04:48:34.408Z,55.50
2023-04-30T04:49:34.405Z,55.85
2023-04-30T04:50:34.400Z,59.66
2023-04-30T04:51:34.405Z,56.69
2023-04-30T04:52:34.390Z,53.25
2023-04-30T04:53:34.937Z,47.82
2023-04-30T04:54:35.388Z,48.12
2023-04-30T04:55:34.355Z,52.14
2023-04-30T04:56:34.381Z,46.75
2023-04-30T04:57:34.334Z,49.51
2023-04-30T04:58:34.355Z,50.65
2023-04-30T04:59:35.159Z,47.03
2023-04-30T05:00:34.318Z,48.13
2023-04-30T05:01:34.359Z,51.37
2023-04-30T05:02:34.382Z,46.79
2023-04-30T05:03:34.491Z,50.83
2023-04-30T05:04:34.298Z,55.51
2023-04-30T05:05:34.306Z,47.52
2023-04-30T05:06:34.327Z,47.24
2023-04-30T05:07:34.260Z,57.77
2023-04-30T05:08:34.275Z,44.59
2023-04-30T05:09:34.249Z,52.15
2023-04-30T05:10:34.240Z,49.78
2023-04-30T05:11:34.236Z,53.72
2023-04-30T05:12:34.220Z,44.08
2023-04-30T05:13:34.224Z,45.90
2023-04-30T05:14:34.240Z,52.82
2023-04-30T05:15:34.247Z,51.85
2023-04-30T05:16:34.267Z,48.76
2023-04-30T05:17:34.246Z,46.54
2023-04-30T05:18:34.189Z,45.63
2023-04-30T05:19:34.185Z,45.38
2023-04-30T05:20:34.208Z,55.28
2023-04-30T05:21:34.186Z,47.68
2023-04-30T05:22:34.166Z,50.88
2023-04-30T05:23:34.148Z,48.42
2023-04-30T05:24:34.173Z,57.85
2023-04-30T05:25:34.146Z,53.27
2023-04-30T05:26:34.139Z,46.85
2023-04-30T05:27:34.142Z,57.22
2023-04-30T05:28:34.122Z,46.62
2023-04-30T05:29:34.109Z,57.69
2023-04-30T05:30:34.102Z,55.30
2023-04-30T05:31:34.122Z,54.11
2023-04-30T05:32:34.153Z,51.66
2023-04-30T05:33:34.062Z,47.28
2023-04-30T05:34:34.085Z,58.41
2023-04-30T05:35:34.076Z,56.53
2023-04-30T05:36:34.063Z,50.06
2023-04-30T05:37:34.064Z,51.12
2023-04-30T05:38:34.034Z,58.86
2023-04-30T05:39:34.033Z,54.45
2023-04-30T05:40:34.034Z,52.25
2023-04-30T05:41:34.026Z,56.02
2023-04-30T05:42:34.042Z,54.05
2023-04-30T05:43:33.982Z,55.08
2023-04-30T05:44:33.991Z,45.56
2023-04-30T05:45:33.979Z,46.33
2023-04-30T05:46:33.983Z,53.17
2023-04-30T05:47:34.008Z,51.70
2023-04-30T05:48:34.825Z,56.92
2023-04-30T05:49:36.011Z,56.96
2023-04-30T05:50:34.937Z,56.26
2023-04-30T05:51:33.931Z,57.65
2023-04-30T05:52:33.933Z,59.78
2023-04-30T05:53:33.942Z,57.16
2023-04-30T05:54:33.950Z,54.64
2023-04-30T05:55:33.894Z,46.43
2023-04-30T05:56:33.902Z,47.18
2023-04-30T05:57:33.900Z,62.50
2023-04-30T05:58:33.916Z,58.36
2023-04-30T05:59:33.865Z,54.24
2023-04-30T06:00:34.006Z,61.21
2023-04-30T06:01:34.017Z,57.23
2023-04-30T06:02:34.050Z,49.81
2023-04-30T06:03:33.876Z,59.77
2023-04-30T06:04:34.836Z,53.05
2023-04-30T06:05:33.873Z,51.72
2023-04-30T06:06:33.895Z,54.48
2023-04-30T06:07:33.821Z,56.91
2023-04-30T06:08:33.829Z,58.69
2023-04-30T06:09:33.822Z,57.37
2023-04-30T06:10:33.788Z,54.52
2023-04-30T06:11:33.813Z,53.80
2023-04-30T06:12:33.787Z,57.72
2023-04-30T06:13:33.815Z,55.09
2023-04-30T06:14:33.752Z,54.15
2023-04-30T06:15:33.748Z,56.97
2023-04-30T06:16:33.861Z,57.79
2023-04-30T06:17:33.796Z,53.33
2023-04-30T06:18:33.746Z,52.67
2023-04-30T06:19:33.748Z,55.94
2023-04-30T06:20:33.727Z,53.93
2023-04-30T06:21:33.755Z,56.18
2023-04-30T06:22:33.722Z,54.37
2023-04-30T06:23:33.708Z,57.40
2023-04-30T06:24:33.669Z,54.85
2023-04-30T06:25:34.696Z,57.64
2023-04-30T06:26:33.672Z,59.15
2023-04-30T06:27:33.694Z,54.93
2023-04-30T06:28:33.644Z,54.13
2023-04-30T06:29:33.675Z,57.41
2023-04-30T06:30:33.654Z,54.42
2023-04-30T06:31:33.651Z,54.79
2023-04-30T06:32:35.362Z,55.14
2023-04-30T06:33:33.623Z,54.16
2023-04-30T06:34:33.602Z,53.01
2023-04-30T06:35:33.591Z,56.10
2023-04-30T06:36:33.609Z,57.72
2023-04-30T06:37:33.618Z,59.69
2023-04-30T06:38:34.643Z,61.02
2023-04-30T06:39:33.568Z,54.87
2023-04-30T06:40:33.593Z,53.35
2023-04-30T06:41:33.560Z,60.77
2023-04-30T06:42:33.669Z,61.14
2023-04-30T06:43:33.554Z,62.12
2023-04-30T06:44:33.544Z,54.52
2023-04-30T06:45:33.559Z,59.63
2023-04-30T06:46:33.560Z,53.84
2023-04-30T06:47:34.371Z,61.37
2023-04-30T06:48:33.509Z,61.80
2023-04-30T06:49:33.497Z,56.94
2023-04-30T06:50:33.573Z,52.93
2023-04-30T06:51:33.498Z,62.30
2023-04-30T06:52:33.505Z,56.94
2023-04-30T06:53:33.528Z,62.26
2023-04-30T06:54:33.488Z,59.91
2023-04-30T06:55:33.458Z,61.20
2023-04-30T06:56:33.462Z,64.06
2023-04-30T06:57:33.445Z,58.82
2023-04-30T06:58:33.451Z,50.85
2023-04-30T06:59:33.415Z,54.48
2023-04-30T07:00:33.399Z,56.20
2023-04-30T07:01:34.493Z,56.06
2023-04-30T07:02:33.506Z,58.08
2023-04-30T07:03:33.542Z,48.27
2023-04-30T07:04:33.386Z,59.69
2023-04-30T07:05:33.418Z,64.43
2023-04-30T07:06:33.388Z,53.77
2023-04-30T07:07:33.360Z,59.25
2023-04-30T07:08:33.361Z,59.01
2023-04-30T07:09:33.346Z,62.09
2023-04-30T07:10:34.382Z,62.36
2023-04-30T07:11:33.331Z,62.57
2023-04-30T07:12:33.349Z,58.85
2023-04-30T07:13:33.342Z,58.21
2023-04-30T07:14:33.298Z,52.69
2023-04-30T07:15:33.335Z,56.20
2023-04-30T07:16:34.358Z,56.79
2023-04-30T07:17:33.384Z,60.87
2023-04-30T07:18:33.273Z,57.81
2023-04-30T07:19:33.314Z,64.79
2023-04-30T07:20:33.286Z,55.18
2023-04-30T07:21:33.879Z,59.70
2023-04-30T07:22:34.265Z,63.16
2023-04-30T07:23:33.295Z,59.94
2023-04-30T07:24:33.225Z,57.60
2023-04-30T07:25:33.270Z,60.06
2023-04-30T07:26:33.272Z,59.32
2023-04-30T07:27:33.223Z,59.92
2023-04-30T07:28:33.203Z,61.85
2023-04-30T07:29:33.201Z,63.36
2023-04-30T07:30:33.194Z,62.77
2023-04-30T07:31:33.220Z,64.86
2023-04-30T07:32:33.312Z,61.49
2023-04-30T07:33:33.194Z,60.66
2023-04-30T07:34:33.199Z,66.30
2023-04-30T07:35:33.160Z,61.39
2023-04-30T07:36:33.155Z,62.24
2023-04-30T07:37:35.272Z,62.29
2023-04-30T07:38:34.165Z,62.14
2023-04-30T07:39:33.144Z,63.78
2023-04-30T07:40:36.417Z,64.42
2023-04-30T07:41:34.142Z,56.19
2023-04-30T07:42:33.115Z,58.43
2023-04-30T07:43:33.125Z,51.96
2023-04-30T07:44:33.121Z,60.38
2023-04-30T07:45:33.152Z,61.91
2023-04-30T07:46:33.154Z,64.26
2023-04-30T07:47:33.113Z,52.84
2023-04-30T07:48:33.084Z,56.63
2023-04-30T07:49:33.081Z,64.52
2023-04-30T07:50:33.049Z,60.94
2023-04-30T07:51:33.078Z,61.35
2023-04-30T07:52:33.062Z,59.96
2023-04-30T07:53:33.065Z,64.20
2023-04-30T07:54:33.021Z,58.23
2023-04-30T07:55:33.054Z,61.84
2023-04-30T07:56:32.993Z,58.32
2023-04-30T07:57:32.993Z,61.47
2023-04-30T07:58:33.021Z,60.61
2023-04-30T07:59:33.888Z,59.55
2023-04-30T08:00:33.011Z,59.76
2023-04-30T08:01:33.035Z,51.60
2023-04-30T08:02:33.119Z,67.39
2023-04-30T08:03:33.130Z,57.31
2023-04-30T08:04:33.002Z,55.34
2023-04-30T08:05:32.983Z,57.48
2023-04-30T08:06:33.035Z,61.13
2023-04-30T08:07:32.939Z,59.10
2023-04-30T08:08:32.915Z,63.50
2023-04-30T08:09:32.932Z,62.67
2023-04-30T08:10:32.884Z,65.08
2023-04-30T08:11:32.936Z,58.63
2023-04-30T08:12:32.903Z,61.07
2023-04-30T08:13:32.889Z,60.97
2023-04-30T08:14:32.964Z,67.02
2023-04-30T08:15:32.890Z,60.74
2023-04-30T08:16:32.941Z,62.24
2023-04-30T08:17:32.879Z,65.81
2023-04-30T08:18:32.850Z,55.82
2023-04-30T08:19:32.892Z,64.53
2023-04-30T08:20:32.870Z,63.11
2023-04-30T08:21:32.839Z,62.82
2023-04-30T08:22:32.816Z,56.11
2023-04-30T08:23:32.835Z,57.67
2023-04-30T08:24:32.823Z,61.18
2023-04-30T08:25:32.811Z,59.80
2023-04-30T08:26:32.806Z,63.80
2023-04-30T08:27:32.813Z,59.57
2023-04-30T08:28:32.771Z,61.16
2023-04-30T08:29:32.825Z,58.53
2023-04-30T08:30:32.768Z,55.91
2023-04-30T08:31:32.909Z,61.92
2023-04-30T08:32:32.862Z,64.08
2023-04-30T08:33:32.775Z,60.86
2023-04-30T08:34:32.748Z,65.28
2023-04-30T08:35:32.756Z,58.87
2023-04-30T08:36:32.728Z,55.09
2023-04-30T08:38:04.670Z,59.10
2023-04-30T08:38:32.713Z,65.93
2023-04-30T08:39:32.711Z,61.99
2023-04-30T08:41:33.667Z,59.09
2023-04-30T08:42:34.258Z,61.17
2023-04-30T08:43:32.696Z,63.03
2023-04-30T08:44:33.848Z,64.63
2023-04-30T08:45:32.655Z,62.21
2023-04-30T08:46:32.679Z,52.47
2023-04-30T08:47:32.645Z,60.79
2023-04-30T08:48:32.696Z,62.09
2023-04-30T08:49:32.601Z,59.41
2023-04-30T08:50:32.610Z,59.26
2023-04-30T08:51:33.627Z,64.70
2023-04-30T08:52:32.619Z,60.55
2023-04-30T08:53:32.628Z,58.21
2023-04-30T08:54:32.623Z,67.54
2023-04-30T08:55:32.616Z,63.23
2023-04-30T08:56:32.578Z,64.07
2023-04-30T08:57:32.620Z,59.76
2023-04-30T08:58:32.549Z,61.13
2023-04-30T08:59:32.591Z,62.18
2023-04-30T09:00:32.550Z,58.91
2023-04-30T09:01:32.633Z,62.10
2023-04-30T09:02:32.619Z,61.02
2023-04-30T09:03:32.712Z,63.87
2023-04-30T09:04:32.505Z,62.18
2023-04-30T09:05:32.500Z,64.70
2023-04-30T09:06:32.583Z,61.42
2023-04-30T09:07:32.529Z,65.19
2023-04-30T09:08:32.498Z,61.36
2023-04-30T09:09:32.487Z,58.54
2023-04-30T09:10:32.503Z,61.94
2023-04-30T09:11:32.525Z,61.49
2023-04-30T09:12:32.439Z,62.29
2023-04-30T09:13:32.436Z,63.69
2023-04-30T09:14:32.483Z,61.52
2023-04-30T09:15:32.451Z,60.40
2023-04-30T09:16:32.555Z,64.91
2023-04-30T09:17:32.461Z,61.86
2023-04-30T09:18:32.418Z,61.73
2023-04-30T09:19:33.423Z,63.73
2023-04-30T09:20:32.445Z,63.08
2023-04-30T09:21:32.418Z,63.03
2023-04-30T09:22:32.409Z,63.93
2023-04-30T09:23:32.403Z,57.41
2023-04-30T09:24:32.376Z,61.37
2023-04-30T09:25:32.428Z,65.54
2023-04-30T09:26:32.409Z,62.29
2023-04-30T09:27:32.336Z,66.81
2023-04-30T09:28:32.349Z,54.15
2023-04-30T09:29:32.335Z,61.47
2023-04-30T09:30:32.352Z,58.41
2023-04-30T09:31:32.365Z,60.85
2023-04-30T09:32:32.448Z,56.80
2023-04-30T09:33:32.972Z,65.16
2023-04-30T09:34:32.290Z,59.17
2023-04-30T09:35:32.295Z,61.64
2023-04-30T09:36:32.357Z,57.65
2023-04-30T09:37:32.299Z,64.10
2023-04-30T09:38:32.346Z,65.02
2023-04-30T09:39:32.306Z,66.98
2023-04-30T09:40:32.948Z,65.26
2023-04-30T09:41:32.281Z,56.93
2023-04-30T09:42:32.246Z,63.68
2023-04-30T09:43:32.327Z,57.81
2023-04-30T09:44:32.229Z,65.54
2023-04-30T09:45:33.127Z,58.73
2023-04-30T09:46:32.293Z,67.21
2023-04-30T09:47:32.269Z,62.17
2023-04-30T09:48:32.216Z,66.07
2023-04-30T09:49:32.243Z,62.07
2023-04-30T09:50:32.219Z,65.23
2023-04-30T09:51:32.197Z,63.74
2023-04-30T09:52:32.176Z,64.16
2023-04-30T09:53:32.136Z,64.98
2023-04-30T09:54:32.206Z,60.55
2023-04-30T09:55:32.131Z,61.08
2023-04-30T09:56:32.132Z,62.20
2023-04-30T09:57:32.165Z,64.47
2023-04-30T09:58:32.132Z,65.54
2023-04-30T09:59:32.218Z,62.81
2023-04-30T10:00:32.141Z,65.66
2023-04-30T10:01:32.094Z,64.26
2023-04-30T10:02:32.864Z,64.05
2023-04-30T10:03:32.190Z,62.98
2023-04-30T10:04:32.088Z,62.09
2023-04-30T10:05:32.071Z,59.11
2023-04-30T10:06:32.091Z,65.26
2023-04-30T10:07:32.071Z,61.06
2023-04-30T10:08:32.076Z,62.64
2023-04-30T10:09:32.032Z,58.93
2023-04-30T10:10:32.956Z,61.94
2023-04-30T10:11:32.050Z,65.11
2023-04-30T10:12:32.090Z,54.69
2023-04-30T10:13:32.009Z,63.32
2023-04-30T10:14:32.007Z,57.46
2023-04-30T10:15:32.021Z,65.63
2023-04-30T10:16:32.048Z,61.24
2023-04-30T10:17:31.982Z,64.03
2023-04-30T10:18:31.997Z,60.10
2023-04-30T10:19:31.990Z,58.32
2023-04-30T10:20:31.998Z,62.97
2023-04-30T10:21:31.968Z,60.43
2023-04-30T10:22:31.974Z,64.14
2023-04-30T10:23:31.978Z,66.47
2023-04-30T10:24:31.978Z,66.18
2023-04-30T10:25:31.924Z,62.98
2023-04-30T10:26:31.931Z,64.93
2023-04-30T10:27:31.948Z,61.84
2023-04-30T10:28:31.932Z,63.68
2023-04-30T10:30:03.882Z,62.81
2023-04-30T10:30:31.916Z,60.13
2023-04-30T10:31:31.946Z,59.32
2023-04-30T10:32:31.940Z,61.96
2023-04-30T10:33:31.908Z,64.59
2023-04-30T10:34:31.903Z,60.74
2023-04-30T10:35:31.864Z,62.42
2023-04-30T10:36:31.829Z,60.34
2023-04-30T10:37:32.818Z,59.00
2023-04-30T10:38:31.910Z,64.90
2023-04-30T10:39:31.828Z,63.70
2023-04-30T10:40:31.873Z,57.54
2023-04-30T10:41:31.847Z,64.83
2023-04-30T10:42:31.889Z,61.27
2023-04-30T10:43:31.820Z,59.87
2023-04-30T10:44:31.791Z,62.62
2023-04-30T10:45:31.814Z,64.36
2023-04-30T10:46:31.886Z,61.90
2023-04-30T10:47:31.866Z,64.60
2023-04-30T10:48:31.785Z,64.86
2023-04-30T10:49:31.792Z,66.19
2023-04-30T10:50:31.753Z,62.01
2023-04-30T10:51:31.795Z,64.13
2023-04-30T10:52:31.750Z,59.09
2023-04-30T10:53:31.718Z,67.35
2023-04-30T10:54:31.711Z,62.61
2023-04-30T10:55:31.717Z,58.84
2023-04-30T10:56:31.753Z,62.60
2023-04-30T10:57:31.682Z,59.55
2023-04-30T10:58:31.685Z,59.12
2023-04-30T10:59:31.674Z,66.02
2023-04-30T11:00:31.655Z,61.70
2023-04-30T11:01:31.704Z,63.54
2023-04-30T11:02:31.719Z,62.32
2023-04-30T11:03:31.665Z,59.88
2023-04-30T11:04:31.745Z,57.61
2023-04-30T11:05:31.629Z,58.52
2023-04-30T11:06:31.708Z,62.92
2023-04-30T11:07:31.652Z,62.94
2023-04-30T11:08:31.620Z,59.53
2023-04-30T11:09:31.635Z,66.21
2023-04-30T11:10:31.611Z,57.63
2023-04-30T11:11:31.641Z,64.64
2023-04-30T11:12:31.639Z,60.96
2023-04-30T11:13:31.577Z,64.06
2023-04-30T11:14:31.580Z,55.03
2023-04-30T11:15:31.590Z,60.90
2023-04-30T11:16:31.831Z,62.60
2023-04-30T11:17:31.590Z,62.73
2023-04-30T11:18:31.541Z,62.78
2023-04-30T11:19:31.532Z,60.19
2023-04-30T11:20:31.522Z,63.77
2023-04-30T11:21:31.551Z,69.04
2023-04-30T11:22:31.520Z,59.55
2023-04-30T11:23:39.289Z,62.40
2023-04-30T11:24:33.484Z,60.88
2023-04-30T11:25:32.482Z,65.34
2023-04-30T11:26:31.523Z,61.92
2023-04-30T11:27:31.492Z,65.14
2023-04-30T11:28:31.470Z,63.60
2023-04-30T11:29:31.492Z,64.19
2023-04-30T11:30:31.453Z,62.05
2023-04-30T11:31:31.532Z,62.71
2023-04-30T11:32:31.465Z,61.57
2023-04-30T11:33:31.484Z,63.35
2023-04-30T11:34:32.473Z,65.68
2023-04-30T11:35:31.468Z,63.44
2023-04-30T11:36:31.447Z,65.76
2023-04-30T11:37:31.412Z,64.28
2023-04-30T11:38:31.418Z,60.84
2023-04-30T11:39:31.387Z,61.62
2023-04-30T11:40:31.402Z,63.06
2023-04-30T11:41:31.378Z,60.76
2023-04-30T11:42:32.391Z,60.36
2023-04-30T11:43:31.486Z,63.63
2023-04-30T11:44:31.394Z,58.92
2023-04-30T11:45:31.373Z,59.60
2023-04-30T11:46:31.392Z,65.51
2023-04-30T11:47:32.368Z,58.68
2023-04-30T11:48:31.346Z,62.41
2023-04-30T11:49:31.345Z,65.65
2023-04-30T11:50:31.358Z,58.70
2023-04-30T11:51:31.317Z,57.86
2023-04-30T11:52:31.318Z,60.90
2023-04-30T11:53:31.315Z,57.59
2023-04-30T11:54:31.286Z,62.36
2023-04-30T11:55:31.402Z,58.25
2023-04-30T11:56:31.271Z,64.43
2023-04-30T11:57:31.259Z,66.32
2023-04-30T11:58:31.280Z,63.35
2023-04-30T11:59:31.317Z,64.84
2023-04-30T12:00:31.278Z,56.89
2023-04-30T12:01:31.234Z,60.89
2023-04-30T12:02:31.424Z,63.21
2023-04-30T12:03:31.398Z,62.72
2023-04-30T12:04:31.326Z,61.43
2023-04-30T12:05:31.211Z,65.01
2023-04-30T12:06:31.367Z,51.86
2023-04-30T12:07:31.220Z,66.43
2023-04-30T12:08:31.223Z,62.08
2023-04-30T12:09:31.293Z,64.71
2023-04-30T12:10:31.166Z,61.35
2023-04-30T12:11:31.213Z,60.99
2023-04-30T12:12:31.188Z,63.33
2023-04-30T12:13:31.148Z,59.31
2023-04-30T12:14:31.168Z,66.08
2023-04-30T12:15:31.212Z,57.96
2023-04-30T12:16:31.179Z,58.84
2023-04-30T12:17:31.167Z,64.86
2023-04-30T12:18:31.150Z,65.06
2023-04-30T12:19:31.205Z,67.75
2023-04-30T12:20:31.114Z,63.10
2023-04-30T12:21:31.165Z,65.71
2023-04-30T12:22:31.097Z,61.06
2023-04-30T12:23:31.122Z,62.19
2023-04-30T12:25:03.959Z,61.35
2023-04-30T12:25:31.071Z,56.60
2023-04-30T12:27:03.012Z,60.48
2023-04-30T12:27:31.053Z,64.75
2023-04-30T12:28:31.074Z,60.18
2023-04-30T12:29:31.582Z,58.62
2023-04-30T12:31:05.535Z,63.97
2023-04-30T12:32:03.027Z,65.61
2023-04-30T12:33:04.197Z,58.21
2023-04-30T12:33:31.020Z,64.21
2023-04-30T12:34:33.700Z,61.88
2023-04-30T12:35:31.983Z,61.47
2023-04-30T12:36:31.001Z,64.12
2023-04-30T12:37:31.010Z,63.71
2023-04-30T12:38:30.985Z,63.46
2023-04-30T12:39:30.993Z,62.49
2023-04-30T12:40:30.961Z,62.51
2023-04-30T12:41:30.953Z,65.92
2023-04-30T12:42:31.519Z,60.19
2023-04-30T12:43:30.950Z,64.23
2023-04-30T12:44:30.989Z,65.50
2023-04-30T12:45:30.958Z,62.56
2023-04-30T12:46:30.949Z,61.17
2023-04-30T12:47:30.945Z,63.70
2023-04-30T12:48:30.918Z,63.08
2023-04-30T12:49:30.994Z,66.51
2023-04-30T12:50:31.015Z,67.27
2023-04-30T12:51:30.859Z,64.98
2023-04-30T12:52:30.872Z,65.97
2023-04-30T12:53:31.902Z,65.65
2023-04-30T12:54:30.869Z,60.07
2023-04-30T12:55:30.854Z,62.02
2023-04-30T12:56:31.663Z,61.18
2023-04-30T12:57:30.826Z,62.81
2023-04-30T12:58:30.831Z,62.88
2023-04-30T12:59:30.824Z,61.90
2023-04-30T13:00:30.839Z,63.35
2023-04-30T13:01:31.679Z,61.10
2023-04-30T13:02:30.881Z,63.35
2023-04-30T13:03:30.920Z,64.60
2023-04-30T13:04:30.764Z,61.85
2023-04-30T13:05:30.822Z,61.52
2023-04-30T13:06:30.837Z,58.51
2023-04-30T13:07:30.745Z,62.00
2023-04-30T13:08:31.465Z,58.58
2023-04-30T13:09:31.730Z,57.13